Time;durP1;ratioP1;P1;durP2;ratioP2;P2;SDS_P1;SDS_P2;PMS_P1;PMS_P2;Temp;Humidity;BMP_temperature;BMP_pressure;BME280_temperature;BME280_humidity;BME280_pressure;Samples;Min_cycle;Max_cycle;Signal;HPM_P1;HPM_P2
2023/07/09 00:00:51;;;;;;;12.60;10.02;;;21.90;99.90;;;;;;5073098;28;20063;-76
2023/07/09 00:03:19;;;;;;;12.57;10.43;;;21.80;99.90;;;;;;5072683;28;20052;-77
2023/07/09 00:05:48;;;;;;;13.18;10.38;;;21.80;99.90;;;;;;5072913;28;20090;-76
2023/07/09 00:08:28;;;;;;;13.82;10.80;;;21.80;99.90;;;;;;5072884;28;20076;-77
2023/07/09 00:10:55;;;;;;;14.18;10.95;;;21.70;99.90;;;;;;5072937;28;20045;-77
2023/07/09 00:13:23;;;;;;;15.52;10.95;;;21.70;99.90;;;;;;5072688;28;20040;-76
2023/07/09 00:15:50;;;;;;;13.95;10.95;;;21.70;99.90;;;;;;5074481;28;20032;-77
2023/07/09 00:18:15;;;;;;;13.25;10.75;;;21.60;99.90;;;;;;5072471;28;20166;-77
2023/07/09 00:20:43;;;;;;;12.23;10.73;;;21.60;99.90;;;;;;5072516;28;20152;-76
2023/07/09 00:23:13;;;;;;;16.13;11.30;;;21.50;99.90;;;;;;5072283;28;20441;-76
2023/07/09 00:25:44;;;;;;;15.13;9.95;;;21.50;99.90;;;;;;5072438;28;20051;-77
2023/07/09 00:28:17;;;;;;;12.38;11.07;;;21.50;99.90;;;;;;5072173;28;20052;-77
2023/07/09 00:30:45;;;;;;;14.27;10.50;;;21.50;99.90;;;;;;5072226;28;20044;-77
2023/07/09 00:33:15;;;;;;;12.80;10.98;;;21.50;99.90;;;;;;5072336;28;20053;-77
2023/07/09 00:35:46;;;;;;;12.93;10.40;;;21.50;99.90;;;;;;5073543;28;20044;-76
2023/07/09 00:38:21;;;;;;;14.47;10.37;;;21.50;99.90;;;;;;5072346;28;20403;-77
2023/07/09 00:40:59;;;;;;;13.95;10.32;;;21.50;99.90;;;;;;5072481;28;20310;-77
2023/07/09 00:43:29;;;;;;;13.35;10.13;;;21.50;99.90;;;;;;5072266;28;20158;-77
2023/07/09 00:46:19;;;;;;;14.02;11.00;;;21.50;99.90;;;;;;5073593;28;20044;-77
2023/07/09 00:48:53;;;;;;;13.38;10.88;;;21.40;99.90;;;;;;5073273;28;20048;-76
2023/07/09 00:51:21;;;;;;;12.23;10.77;;;21.40;99.90;;;;;;5072420;28;20055;-77
2023/07/09 00:53:51;;;;;;;13.98;11.13;;;21.50;99.90;;;;;;5072093;28;20041;-76
2023/07/09 00:56:27;;;;;;;14.65;10.55;;;21.50;99.90;;;;;;5073470;28;20090;-77
2023/07/09 00:58:54;;;;;;;14.05;11.35;;;21.40;99.90;;;;;;5072202;28;20048;-76
2023/07/09 01:01:21;;;;;;;12.27;10.45;;;21.40;99.90;;;;;;5074237;28;20044;-76
2023/07/09 01:03:53;;;;;;;13.27;11.23;;;21.40;99.90;;;;;;5077285;28;20056;-77
2023/07/09 01:06:32;;;;;;;16.50;12.00;;;21.40;99.90;;;;;;5076129;28;20041;-77
2023/07/09 01:09:00;;;;;;;14.18;11.60;;;21.40;99.90;;;;;;5076211;28;20041;-76
2023/07/09 01:11:26;;;;;;;14.55;11.20;;;21.40;99.90;;;;;;5077245;28;20078;-76
2023/07/09 01:13:55;;;;;;;14.20;11.27;;;21.40;99.90;;;;;;5075806;28;20131;-77
2023/07/09 01:16:23;;;;;;;14.93;11.63;;;21.30;99.90;;;;;;5077237;28;20049;-77
2023/07/09 01:18:53;;;;;;;15.98;11.30;;;21.30;99.90;;;;;;5075683;28;20045;-76
2023/07/09 01:21:19;;;;;;;16.15;11.25;;;21.30;99.90;;;;;;5075724;28;20048;-77
2023/07/09 01:23:52;;;;;;;15.13;11.85;;;21.30;99.90;;;;;;5076799;28;20094;-77
2023/07/09 01:26:24;;;;;;;13.98;11.73;;;21.20;99.90;;;;;;5076154;28;20048;-77
2023/07/09 01:28:55;;;;;;;16.63;11.37;;;21.20;99.90;;;;;;5075678;28;20053;-77
2023/07/09 01:31:21;;;;;;;15.10;11.70;;;21.20;99.90;;;;;;5076899;28;20047;-77
2023/07/09 01:33:47;;;;;;;15.45;12.60;;;21.20;99.90;;;;;;5076837;28;20087;-77
2023/07/09 01:36:17;;;;;;;16.05;11.77;;;21.20;99.90;;;;;;5075524;28;20040;-77
2023/07/09 01:38:44;;;;;;;17.50;12.27;;;21.10;99.90;;;;;;5075445;28;20048;-77
2023/07/09 01:41:13;;;;;;;15.25;12.32;;;21.10;99.90;;;;;;5075345;28;20052;-77
2023/07/09 01:43:41;;;;;;;13.77;12.10;;;21.00;99.90;;;;;;5076732;28;20052;-77
2023/07/09 01:46:08;;;;;;;16.10;11.75;;;21.00;99.90;;;;;;5075256;28;20056;-77
2023/07/09 01:48:40;;;;;;;14.25;11.98;;;21.00;99.90;;;;;;5076569;28;20380;-77
2023/07/09 01:51:07;;;;;;;;;;;21.00;99.90;;;;;;5076949;28;20105;-77
2023/07/09 01:53:33;;;;;;;14.65;11.07;;;20.90;99.90;;;;;;5076545;28;19928;-76
2023/07/09 01:55:59;;;;;;;14.80;12.05;;;20.80;99.90;;;;;;5074986;28;20045;-77
2023/07/09 01:58:25;;;;;;;15.75;11.98;;;20.80;99.90;;;;;;5075457;28;20059;-77
2023/07/09 02:00:51;;;;;;;13.88;12.23;;;20.80;99.90;;;;;;5076254;28;20048;-76
2023/07/09 02:03:19;;;;;;;16.58;13.05;;;20.80;99.90;;;;;;5075293;28;20040;-77
2023/07/09 02:05:46;;;;;;;17.55;12.93;;;20.70;99.90;;;;;;5074832;28;20058;-77
2023/07/09 02:08:11;;;;;;;15.18;12.32;;;20.70;99.90;;;;;;5074841;28;20041;-77
2023/07/09 02:10:37;;;;;;;18.48;12.48;;;20.70;99.90;;;;;;5074849;28;20045;-77
2023/07/09 02:13:02;;;;;;;14.05;11.30;;;20.70;99.90;;;;;;5075476;28;20044;-76
2023/07/09 02:15:30;;;;;;;15.00;12.10;;;20.70;99.90;;;;;;5076289;28;20037;-76
2023/07/09 02:17:58;;;;;;;14.93;12.15;;;20.70;99.90;;;;;;5074832;28;20060;-76
2023/07/09 02:20:26;;;;;;;15.57;11.65;;;20.70;99.90;;;;;;5074526;28;20083;-77
2023/07/09 02:22:51;;;;;;;13.95;11.95;;;20.60;99.90;;;;;;5076024;28;20059;-76
2023/07/09 02:25:17;;;;;;;16.45;11.68;;;20.60;99.90;;;;;;5074521;28;20041;-77
2023/07/09 02:27:43;;;;;;;15.43;12.02;;;20.60;99.90;;;;;;5074437;28;20060;-77
2023/07/09 02:30:11;;;;;;;14.63;11.57;;;20.60;99.90;;;;;;5074415;28;20132;-77
2023/07/09 02:32:37;;;;;;;16.05;11.93;;;20.60;99.90;;;;;;5074732;28;20036;-76
2023/07/09 02:35:03;;;;;;;16.30;12.95;;;20.60;99.90;;;;;;5075960;28;20445;-76
2023/07/09 02:37:30;;;;;;;16.70;12.02;;;20.60;99.90;;;;;;5075534;28;20044;-77
2023/07/09 02:39:55;;;;;;;16.77;12.43;;;20.60;99.90;;;;;;5074892;28;20102;-76
2023/07/09 02:42:22;;;;;;;14.48;11.57;;;20.60;99.90;;;;;;5074292;28;20036;-76
2023/07/09 02:44:48;;;;;;;14.63;12.40;;;20.50;99.90;;;;;;5074514;28;20068;-76
2023/07/09 02:47:14;;;;;;;15.77;11.95;;;20.50;99.90;;;;;;5075151;28;20045;-76
2023/07/09 02:49:40;;;;;;;20.10;12.75;;;20.50;99.90;;;;;;5073949;28;20050;-76
2023/07/09 02:52:06;;;;;;;15.77;12.23;;;20.50;99.90;;;;;;5073972;28;20040;-76
2023/07/09 02:54:32;;;;;;;16.02;12.70;;;20.50;99.90;;;;;;5075177;28;20102;-77
2023/07/09 02:56:58;;;;;;;14.23;11.77;;;20.40;99.90;;;;;;5075212;28;20040;-77
2023/07/09 02:59:25;;;;;;;16.48;12.52;;;20.40;99.90;;;;;;5075252;28;20048;-77
2023/07/09 03:01:52;;;;;;;15.40;13.35;;;20.40;99.90;;;;;;5075052;28;20119;-77
2023/07/09 03:04:20;;;;;;;17.90;13.30;;;20.30;99.90;;;;;;5073570;28;20488;-76
2023/07/09 03:06:46;;;;;;;17.13;13.13;;;20.30;99.90;;;;;;5074674;28;20480;-76
2023/07/09 03:09:12;;;;;;;18.02;13.07;;;20.30;99.90;;;;;;5073497;28;20080;-77
2023/07/09 03:11:38;;;;;;;16.40;14.05;;;20.30;99.90;;;;;;5073184;28;20044;-76
2023/07/09 03:14:03;;;;;;;21.40;13.73;;;20.20;99.90;;;;;;5072528;28;20114;-76
2023/07/09 03:16:31;;;;;;;16.27;13.73;;;20.20;99.90;;;;;;5071461;28;20076;-76
2023/07/09 03:18:58;;;;;;;17.58;14.05;;;20.10;99.90;;;;;;5072301;28;20049;-77
2023/07/09 03:21:25;;;;;;;16.42;13.95;;;20.10;99.90;;;;;;5073407;28;20083;-77
2023/07/09 03:23:51;;;;;;;17.88;13.98;;;20.10;99.90;;;;;;5073312;28;20080;-76
2023/07/09 03:26:17;;;;;;;18.90;14.98;;;20.10;99.90;;;;;;5073358;28;20076;-77
2023/07/09 03:28:44;;;;;;;20.10;14.80;;;20.10;99.90;;;;;;5073133;28;20048;-77
2023/07/09 03:31:09;;;;;;;17.35;15.25;;;20.10;99.90;;;;;;5073037;28;20068;-76
2023/07/09 03:33:35;;;;;;;18.08;14.65;;;20.00;99.90;;;;;;5073362;28;20084;-76
2023/07/09 03:36:01;;;;;;;17.95;14.30;;;20.10;99.90;;;;;;5073075;28;20366;-77
2023/07/09 03:38:27;;;;;;;21.83;14.85;;;20.00;99.90;;;;;;5072964;28;20060;-77
2023/07/09 03:40:53;;;;;;;20.50;13.75;;;19.90;99.90;;;;;;5073182;28;20067;-76
2023/07/09 03:43:19;;;;;;;17.40;14.32;;;19.90;99.90;;;;;;5073037;28;20047;-76
2023/07/09 03:45:46;;;;;;;16.85;13.82;;;20.00;99.90;;;;;;5072611;28;20415;-76
2023/07/09 03:48:12;;;;;;;21.08;14.23;;;20.00;99.90;;;;;;5074171;28;20492;-76
2023/07/09 03:50:38;;;;;;;17.65;14.48;;;19.90;99.90;;;;;;5074219;28;20120;-76
2023/07/09 03:53:05;;;;;;;17.88;14.15;;;19.90;99.90;;;;;;5072756;28;20094;-76
2023/07/09 03:55:31;;;;;;;17.13;14.05;;;19.90;99.90;;;;;;5072605;28;20492;-77
2023/07/09 03:57:57;;;;;;;18.17;13.77;;;20.00;99.90;;;;;;5072692;28;20123;-76
2023/07/09 04:00:24;;;;;;;16.02;13.38;;;20.00;99.90;;;;;;5072858;28;20052;-76
2023/07/09 04:02:51;;;;;;;19.55;13.95;;;19.90;99.90;;;;;;5073836;28;20099;-77
2023/07/09 04:05:17;;;;;;;19.40;14.25;;;20.00;99.90;;;;;;5072563;28;20052;-76
2023/07/09 04:07:43;;;;;;;18.15;13.80;;;20.00;99.90;;;;;;5073725;28;20141;-76
2023/07/09 04:10:10;;;;;;;16.65;13.85;;;20.00;99.90;;;;;;5072455;28;20050;-76
2023/07/09 04:12:36;;;;;;;18.63;14.05;;;20.00;99.90;;;;;;5072654;28;20041;-77
2023/07/09 04:15:03;;;;;;;17.20;13.93;;;20.10;99.90;;;;;;5072395;28;20045;-76
2023/07/09 04:17:29;;;;;;;17.23;13.05;;;20.00;99.90;;;;;;5073899;28;20040;-76
2023/07/09 04:19:55;;;;;;;16.05;12.82;;;20.00;99.90;;;;;;5072333;28;20040;-76
2023/07/09 04:22:23;;;;;;;16.25;13.80;;;20.10;99.90;;;;;;5073620;28;20047;-77
2023/07/09 04:24:49;;;;;;;20.42;13.98;;;20.10;99.90;;;;;;5072581;28;20503;-77
2023/07/09 04:27:16;;;;;;;19.42;14.18;;;20.10;99.90;;;;;;5072200;28;20606;-77
2023/07/09 04:29:42;;;;;;;18.80;13.68;;;20.10;99.90;;;;;;5072072;28;20062;-76
2023/07/09 04:32:12;;;;;;;15.88;13.02;;;20.20;99.90;;;;;;5072126;28;20044;-77
2023/07/09 04:34:39;;;;;;;16.88;13.23;;;20.30;99.90;;;;;;5072606;28;20036;-76
2023/07/09 04:37:07;;;;;;;21.77;13.98;;;20.30;99.90;;;;;;5072096;28;20109;-77
2023/07/09 04:39:33;;;;;;;17.85;12.63;;;20.30;99.90;;;;;;5072374;28;20073;-76
2023/07/09 04:41:59;;;;;;;14.88;13.25;;;20.30;99.90;;;;;;5071894;28;20040;-76
2023/07/09 04:44:24;;;;;;;18.48;12.77;;;20.40;99.90;;;;;;5072312;28;20499;-76
2023/07/09 04:46:50;;;;;;;15.40;12.38;;;20.40;99.90;;;;;;5072241;28;20040;-76
2023/07/09 04:49:16;;;;;;;18.60;13.60;;;20.40;99.90;;;;;;5071983;28;20051;-76
2023/07/09 04:51:41;;;;;;;15.35;12.90;;;20.40;99.90;;;;;;5072234;28;20131;-77
2023/07/09 04:54:07;;;;;;;15.35;12.57;;;20.50;99.90;;;;;;5072185;28;20144;-76
2023/07/09 04:56:33;;;;;;;16.27;13.13;;;20.50;99.90;;;;;;5071950;28;20036;-76
2023/07/09 04:58:58;;;;;;;17.20;11.98;;;20.60;99.90;;;;;;5072093;28;20075;-76
2023/07/09 05:01:24;;;;;;;16.98;13.05;;;20.60;99.90;;;;;;5073178;28;20052;-76
2023/07/09 05:03:50;;;;;;;16.10;12.57;;;20.70;99.90;;;;;;5071955;28;20083;-76
2023/07/09 05:06:16;;;;;;;16.77;12.77;;;20.70;99.90;;;;;;5072027;28;20044;-76
2023/07/09 05:08:42;;;;;;;16.27;12.65;;;20.80;99.90;;;;;;5071788;28;20045;-76
2023/07/09 05:11:10;;;;;;;18.27;12.57;;;20.80;99.90;;;;;;5071895;28;20127;-76
2023/07/09 05:13:36;;;;;;;15.82;12.40;;;20.80;99.90;;;;;;5071778;28;20047;-76
2023/07/09 05:16:02;;;;;;;17.42;13.35;;;20.80;99.90;;;;;;5071981;28;20041;-76
2023/07/09 05:18:27;;;;;;;17.65;13.32;;;20.90;99.90;;;;;;5071678;28;20056;-76
2023/07/09 05:20:55;;;;;;;16.98;12.52;;;20.90;99.90;;;;;;5072939;28;20136;-76
2023/07/09 05:23:21;;;;;;;15.13;12.32;;;21.00;99.90;;;;;;5072193;28;20049;-76
2023/07/09 05:25:46;;;;;;;15.20;12.43;;;21.00;99.90;;;;;;5071596;28;20071;-76
2023/07/09 05:28:13;;;;;;;16.00;12.27;;;21.10;99.90;;;;;;5071363;28;20056;-76
2023/07/09 05:30:43;;;;;;;15.13;12.40;;;21.10;99.90;;;;;;5071940;28;20049;-76
2023/07/09 05:33:09;;;;;;;17.02;13.25;;;21.20;99.90;;;;;;5071594;28;20064;-76
2023/07/09 05:35:34;;;;;;;14.88;12.10;;;21.20;99.90;;;;;;5071600;28;20105;-76
2023/07/09 05:38:00;;;;;;;14.25;12.70;;;21.30;99.90;;;;;;5071231;28;20547;-76
2023/07/09 05:40:25;;;;;;;17.67;12.68;;;21.30;99.90;;;;;;5072996;28;20051;-76
2023/07/09 05:42:51;;;;;;;15.10;12.77;;;21.50;99.90;;;;;;5071628;28;20044;-76
2023/07/09 05:45:17;;;;;;;16.27;13.32;;;21.40;99.90;;;;;;5071833;28;20040;-76
2023/07/09 05:47:42;;;;;;;15.93;12.80;;;21.50;99.90;;;;;;5072585;28;20049;-75
2023/07/09 05:50:08;;;;;;;18.77;13.27;;;21.60;99.90;;;;;;5076496;28;20044;-77
2023/07/09 05:52:34;;;;;;;14.55;12.98;;;21.70;99.90;;;;;;5075109;28;20072;-75
2023/07/09 05:55:00;;;;;;;14.88;12.80;;;21.90;99.90;;;;;;5076213;28;20048;-75
2023/07/09 05:57:26;;;;;;;17.10;12.77;;;21.90;99.90;;;;;;5072454;28;20496;-74
2023/07/09 05:59:52;;;;;;;19.95;13.25;;;22.00;99.90;;;;;;5064976;28;20037;-75
2023/07/09 06:02:19;;;;;;;18.23;12.73;;;22.10;99.90;;;;;;5054787;28;20496;-76
2023/07/09 06:04:46;;;;;;;14.52;12.73;;;22.20;99.90;;;;;;5054855;28;20049;-76
2023/07/09 06:07:13;;;;;;;17.35;13.10;;;22.20;99.90;;;;;;5054550;28;20128;-76
2023/07/09 06:09:39;;;;;;;15.80;13.15;;;22.30;99.90;;;;;;5055665;28;20084;-77
2023/07/09 06:12:06;;;;;;;16.85;13.38;;;22.30;99.90;;;;;;5054566;28;20143;-76
2023/07/09 06:14:33;;;;;;;16.05;14.02;;;22.20;99.90;;;;;;5054438;28;20408;-76
2023/07/09 06:17:02;;;;;;;16.88;13.57;;;22.10;99.90;;;;;;5055145;28;20052;-75
2023/07/09 06:19:28;;;;;;;16.98;12.95;;;22.20;99.90;;;;;;5055846;28;20049;-76
2023/07/09 06:21:53;;;;;;;18.13;13.32;;;22.30;99.90;;;;;;5055778;28;20037;-74
2023/07/09 06:24:19;;;;;;;19.88;13.60;;;22.40;99.90;;;;;;5055460;28;20056;-75
2023/07/09 06:26:46;;;;;;;18.70;13.18;;;22.50;99.90;;;;;;5054031;28;20546;-75
2023/07/09 06:29:11;;;;;;;14.50;12.55;;;22.70;99.90;;;;;;5054186;28;20056;-75
2023/07/09 06:31:37;;;;;;;18.48;13.48;;;22.80;99.90;;;;;;5054148;28;20045;-75
2023/07/09 06:34:03;;;;;;;16.80;13.63;;;23.00;99.90;;;;;;5054518;28;20048;-75
2023/07/09 06:36:29;;;;;;;15.55;13.13;;;23.20;99.90;;;;;;5054239;28;20041;-75
2023/07/09 06:38:54;;;;;;;15.52;12.93;;;23.30;99.90;;;;;;5054214;28;20052;-75
2023/07/09 06:41:20;;;;;;;15.75;12.85;;;23.50;99.90;;;;;;5054151;28;20055;-75
2023/07/09 06:43:46;;;;;;;17.30;12.70;;;23.70;99.90;;;;;;5054136;28;20124;-75
2023/07/09 06:46:14;;;;;;;17.40;12.65;;;23.80;99.90;;;;;;5055348;28;20382;-76
2023/07/09 06:48:39;;;;;;;16.13;13.63;;;23.80;99.90;;;;;;5053790;28;20103;-76
2023/07/09 06:51:05;;;;;;;15.85;12.52;;;23.70;99.90;;;;;;5054868;28;20045;-75
2023/07/09 06:53:31;;;;;;;16.70;13.07;;;23.70;99.90;;;;;;5053947;28;20045;-75
2023/07/09 06:55:58;;;;;;;16.00;13.05;;;23.70;99.90;;;;;;5053660;28;20408;-76
2023/07/09 06:58:31;;;;;;;16.88;12.73;;;23.60;99.90;;;;;;5053310;28;20045;-77
2023/07/09 07:00:57;;;;;;;16.70;13.38;;;23.60;99.90;;;;;;5053829;28;20053;-76
2023/07/09 07:03:24;;;;;;;16.55;13.20;;;23.60;99.90;;;;;;5053547;28;20052;-76
2023/07/09 07:05:53;;;;;;;18.38;13.48;;;23.70;99.90;;;;;;5053406;28;20049;-75
2023/07/09 07:08:22;;;;;;;14.95;12.38;;;23.80;99.90;;;;;;5053450;28;20482;-77
2023/07/09 07:10:49;;;;;;;16.98;13.25;;;24.10;99.90;;;;;;5053655;28;20102;-76
2023/07/09 07:13:15;;;;;;;14.65;13.13;;;24.30;99.90;;;;;;5053635;28;20107;-78
2023/07/09 07:15:41;;;;;;;17.50;13.05;;;24.50;99.90;;;;;;5054549;28;20045;-78
2023/07/09 07:18:07;;;;;;;17.40;13.35;;;24.60;99.90;;;;;;5053216;28;20049;-76
2023/07/09 07:20:36;;;;;;;17.73;14.27;;;24.80;99.90;;;;;;5053355;28;20097;-77
2023/07/09 07:23:01;;;;;;;15.98;12.63;;;25.10;99.90;;;;;;5053119;28;20048;-77
2023/07/09 07:25:27;;;;;;;14.98;12.07;;;25.30;99.90;;;;;;5053531;28;20049;-77
2023/07/09 07:27:53;;;;;;;18.70;13.40;;;25.40;99.90;;;;;;5052867;28;20065;-78
2023/07/09 07:30:20;;;;;;;15.85;13.02;;;25.50;99.90;;;;;;5052964;28;20057;-78
2023/07/09 07:32:48;;;;;;;21.20;14.63;;;25.50;99.90;;;;;;5053115;28;20048;-78
2023/07/09 07:35:14;;;;;;;16.63;14.27;;;25.50;99.90;;;;;;5053199;28;20045;-78
2023/07/09 07:37:43;;;;;;;18.70;13.93;;;25.40;99.90;;;;;;5053068;28;20369;-77
2023/07/09 07:40:09;;;;;;;19.75;15.48;;;25.30;99.90;;;;;;5052843;28;20048;-78
2023/07/09 07:42:36;;;;;;;18.67;14.73;;;25.10;99.90;;;;;;5052942;28;20511;-78
2023/07/09 07:45:02;;;;;;;17.55;14.13;;;25.20;99.90;;;;;;5052854;28;20040;-78
2023/07/09 07:47:27;;;;;;;20.00;13.93;;;25.30;99.90;;;;;;5086206;28;20143;-78
2023/07/09 07:49:54;;;;;;;20.17;16.20;;;25.40;99.90;;;;;;5052906;28;20551;-78
2023/07/09 07:52:20;;;;;;;15.70;13.52;;;25.40;99.90;;;;;;5052834;28;20098;-77
2023/07/09 07:54:46;;;;;;;16.92;14.90;;;25.60;99.90;;;;;;5052829;28;20045;-78
2023/07/09 07:57:12;;;;;;;17.45;15.38;;;25.70;99.90;;;;;;5053750;28;20476;-78
2023/07/09 07:59:38;;;;;;;19.42;14.95;;;25.90;99.90;;;;;;5052530;28;20052;-78
2023/07/09 08:02:10;;;;;;;17.92;14.55;;;26.00;99.90;;;;;;5085942;28;20049;-78
2023/07/09 08:04:36;;;;;;;21.05;17.17;;;26.20;99.90;;;;;;5053760;28;20404;-77
2023/07/09 08:07:01;;;;;;;17.60;15.13;;;26.30;99.90;;;;;;5052315;28;20498;-76
2023/07/09 08:09:27;;;;;;;19.05;16.33;;;26.30;99.90;;;;;;5052327;28;20049;-77
2023/07/09 08:11:53;;;;;;;20.20;16.50;;;26.40;99.90;;;;;;5053036;28;20124;-78
2023/07/09 08:14:18;;;;;;;20.08;17.40;;;26.60;99.90;;;;;;5052311;28;20133;-77
2023/07/09 08:16:44;;;;;;;19.92;17.58;;;26.70;99.90;;;;;;5086027;28;20037;-78
2023/07/09 08:19:10;;;;;;;22.05;19.23;;;26.70;99.90;;;;;;5052206;28;20450;-77
2023/07/09 08:21:36;;;;;;;23.30;18.52;;;26.60;99.90;;;;;;5085720;28;20059;-77
2023/07/09 08:24:01;;;;;;;21.05;17.05;;;26.60;99.90;;;;;;5052132;28;20045;-77
2023/07/09 08:26:28;;;;;;;25.73;19.45;;;26.50;99.90;;;;;;5051872;28;20045;-76
2023/07/09 08:28:55;;;;;;;22.15;18.02;;;26.50;99.90;;;;;;5051743;28;20061;-75
2023/07/09 08:31:23;;;;;;;23.92;19.27;;;26.60;99.90;;;;;;5085629;28;20081;-76
2023/07/09 08:33:48;;;;;;;22.70;19.33;;;26.70;99.90;;;;;;5051958;28;20126;-76
2023/07/09 08:36:14;;;;;;;25.92;20.23;;;26.80;99.90;;;;;;5052287;28;20052;-76
2023/07/09 08:38:40;;;;;;;24.95;19.55;;;26.90;99.90;;;;;;5053300;28;20102;-76
2023/07/09 08:41:05;;;;;;;24.73;21.88;;;27.00;99.90;;;;;;5052277;28;20041;-75
2023/07/09 08:44:05;;;;;;;24.15;20.92;;;26.80;99.90;;;;;;5051906;28;20485;-76
2023/07/09 08:47:01;;;;;;;24.23;21.20;;;26.90;99.90;;;;;;5051824;28;20127;-76
2023/07/09 08:49:50;;;;;;;24.70;21.77;;;27.10;99.90;;;;;;5051754;28;20048;-76
2023/07/09 08:52:37;;;;;;;27.77;23.25;;;27.00;99.90;;;;;;5045712;28;20053;-76
2023/07/09 08:55:16;;;;;;;28.58;24.58;;;27.00;99.90;;;;;;5051634;28;20412;-74
2023/07/09 08:57:50;;;;;;;26.95;21.90;;;26.80;99.90;;;;;;5051807;28;20163;-76
2023/07/09 09:00:33;;;;;;;24.67;21.38;;;26.80;99.90;;;;;;5051865;28;20480;-75
2023/07/09 09:03:19;;;;;;;24.27;20.02;;;26.80;99.90;;;;;;5051788;28;20049;-77
2023/07/09 09:05:48;;;;;;;24.05;20.83;;;26.80;99.90;;;;;;5051657;28;20389;-78
2023/07/09 09:08:27;;;;;;;24.00;21.13;;;26.90;99.90;;;;;;5051856;28;20503;-75
2023/07/09 09:11:10;;;;;;;27.83;24.25;;;27.20;99.90;;;;;;5051823;28;20516;-75
2023/07/09 09:13:36;;;;;;;;;;;27.30;99.90;;;;;;5053432;28;20070;-76
2023/07/09 09:16:10;;;;;;;27.83;23.42;;;27.40;99.90;;;;;;5051892;28;19921;-76
2023/07/09 09:18:42;;;;;;;26.17;22.88;;;27.40;99.90;;;;;;5051605;28;20049;-76
2023/07/09 09:21:19;;;;;;;27.48;23.67;;;27.40;99.90;;;;;;5051679;28;20084;-76
2023/07/09 09:23:54;;;;;;;29.08;22.55;;;27.50;99.90;;;;;;5062711;28;20373;-75
2023/07/09 09:26:26;;;;;;;21.65;17.77;;;27.70;99.90;;;;;;5075681;28;20083;-75
2023/07/09 09:28:53;;;;;;;15.48;12.18;;;27.60;99.90;;;;;;5076308;28;20059;-75
2023/07/09 09:31:18;;;;;;;15.30;10.75;;;27.60;99.90;;;;;;5074790;28;20440;-75
2023/07/09 09:33:47;;;;;;;13.00;10.13;;;27.50;99.90;;;;;;5075158;28;20048;-75
2023/07/09 09:36:19;;;;;;;16.27;11.15;;;27.60;99.90;;;;;;5076560;28;20037;-75
2023/07/09 09:38:45;;;;;;;16.02;11.60;;;27.60;99.90;;;;;;5076373;28;20048;-76
2023/07/09 09:41:16;;;;;;;16.27;11.23;;;27.60;99.90;;;;;;5075056;28;20403;-75
2023/07/09 09:43:44;;;;;;;16.33;12.23;;;27.60;99.90;;;;;;5075597;28;20438;-76
2023/07/09 09:46:19;;;;;;;16.60;12.75;;;27.70;99.90;;;;;;5076121;28;20049;-75
2023/07/09 09:48:48;;;;;;;15.13;12.80;;;27.60;99.90;;;;;;5075130;28;20066;-75
2023/07/09 09:51:15;;;;;;;17.90;14.30;;;27.50;99.90;;;;;;5075110;28;20052;-76
2023/07/09 09:53:46;;;;;;;15.30;13.35;;;27.40;99.90;;;;;;5074892;28;20052;-75
2023/07/09 09:56:18;;;;;;;17.35;12.07;;;27.10;99.90;;;;;;5074912;28;20049;-74
2023/07/09 09:58:43;;;;;;;17.77;12.18;;;27.10;99.90;;;;;;5074983;28;20106;-75
2023/07/09 10:01:18;;;;;;;18.20;12.93;;;27.10;99.90;;;;;;5074804;28;20091;-75
2023/07/09 10:03:46;;;;;;;16.63;13.18;;;27.10;99.90;;;;;;5076050;28;20064;-74
2023/07/09 10:06:17;;;;;;;16.90;12.60;;;27.10;99.90;;;;;;5074964;28;20113;-74
2023/07/09 10:09:09;;;;;;;16.00;11.82;;;26.90;99.90;;;;;;5074567;28;20557;-75
2023/07/09 10:11:44;;;;;;;17.13;12.68;;;26.90;99.90;;;;;;5074583;28;20044;-74
2023/07/09 10:14:45;;;;;;;13.15;11.20;;;27.00;99.90;;;;;;5074815;28;20499;-74
2023/07/09 10:17:28;;;;;;;17.05;11.77;;;27.00;99.90;;;;;;5075958;28;20090;-75
2023/07/09 10:20:03;;;;;;;16.85;12.02;;;27.00;99.90;;;;;;5074632;28;20411;-74
2023/07/09 10:23:12;;;;;;;15.18;11.05;;;27.10;99.90;;;;;;5074326;28;20119;-75
2023/07/09 10:25:48;;;;;;;17.92;12.73;;;27.30;99.90;;;;;;5075780;28;20040;-74
2023/07/09 10:28:28;;;;;;;16.58;11.75;;;27.40;99.90;;;;;;5073999;28;20060;-75
2023/07/09 10:31:08;;;;;;;17.27;12.00;;;27.50;99.90;;;;;;5075621;28;20063;-75
2023/07/09 10:34:17;;;;;;;16.00;12.63;;;27.70;99.90;;;;;;5073449;28;20504;-75
2023/07/09 10:37:08;;;;;;;18.00;12.95;;;27.50;99.90;;;;;;5073983;28;20063;-77
2023/07/09 10:39:40;;;;;;;15.60;12.52;;;27.50;99.90;;;;;;5075634;28;20044;-78
2023/07/09 10:42:16;;;;;;;15.85;12.35;;;27.30;99.90;;;;;;5074275;28;20123;-77
2023/07/09 10:44:46;;;;;;;19.27;12.40;;;27.30;99.90;;;;;;5074198;28;20087;-77
2023/07/09 10:47:31;;;;;;;18.30;12.55;;;27.30;99.90;;;;;;5075327;28;20545;-77
2023/07/09 10:50:01;;;;;;;16.90;12.50;;;27.30;99.90;;;;;;5073982;28;20132;-77
2023/07/09 10:52:36;;;;;;;17.60;14.88;;;27.40;99.90;;;;;;5074213;28;20044;-77
2023/07/09 10:55:21;;;;;;;17.08;12.43;;;27.30;99.90;;;;;;5075333;28;20052;-77
2023/07/09 10:57:58;;;;;;;15.80;12.55;;;27.20;99.90;;;;;;5074066;28;20084;-77
2023/07/09 11:00:36;;;;;;;13.48;11.32;;;27.30;99.90;;;;;;5075128;28;20082;-76
2023/07/09 11:03:21;;;;;;;15.25;11.77;;;27.70;99.90;;;;;;5073998;28;20048;-76
2023/07/09 11:05:49;;;;;;;11.95;10.43;;;27.80;99.90;;;;;;5073678;28;20087;-76
2023/07/09 11:08:50;;;;;;;16.52;11.20;;;27.80;99.90;;;;;;5073810;28;20080;-76
2023/07/09 11:11:29;;;;;;;15.50;10.98;;;28.00;99.90;;;;;;5071638;28;20059;-76
2023/07/09 11:14:00;;;;;;;17.23;10.88;;;28.10;99.90;;;;;;5073749;28;20040;-76
2023/07/09 11:16:31;;;;;;;16.75;11.00;;;28.20;99.90;;;;;;5075058;28;20040;-76
2023/07/09 11:19:01;;;;;;;14.75;9.65;;;28.30;99.90;;;;;;5073711;28;20502;-76
2023/07/09 11:21:26;;;;;;;10.98;8.75;;;28.40;99.90;;;;;;5073343;28;20539;-76
2023/07/09 11:24:00;;;;;;;12.27;8.65;;;28.60;99.90;;;;;;5074749;28;20120;-76
2023/07/09 11:26:31;;;;;;;12.52;8.73;;;28.50;99.90;;;;;;5073505;28;20054;-76
2023/07/09 11:29:06;;;;;;;11.93;8.77;;;28.50;99.90;;;;;;5073566;28;20132;-76
2023/07/09 11:31:38;;;;;;;11.35;7.93;;;28.70;99.90;;;;;;5074407;28;20389;-76
2023/07/09 11:34:07;;;;;;;10.93;8.02;;;28.80;99.90;;;;;;5073392;28;20555;-76
2023/07/09 11:36:34;;;;;;;11.88;8.70;;;29.00;99.90;;;;;;5073340;28;20059;-76
2023/07/09 11:39:04;;;;;;;13.75;7.95;;;29.30;99.90;;;;;;5073033;28;20052;-76
2023/07/09 11:41:39;;;;;;;15.48;7.40;;;29.30;99.90;;;;;;5074535;28;20047;-76
2023/07/09 11:44:45;;;;;;;16.30;8.63;;;29.40;99.90;;;;;;5072935;28;20044;-77
2023/07/09 11:47:27;;;;;;;10.50;7.97;;;29.50;99.90;;;;;;5034958;28;20474;-76
2023/07/09 11:50:02;;;;;;;10.63;8.43;;;29.40;99.90;;;;;;5070795;28;20055;-76
2023/07/09 11:52:33;;;;;;;11.65;7.93;;;29.30;99.90;;;;;;5074282;28;20076;-76
2023/07/09 11:55:36;;;;;;;8.82;7.40;;;29.10;99.90;;;;;;5072779;28;20133;-76
2023/07/09 11:58:03;;;;;;;9.85;7.50;;;29.20;99.90;;;;;;5073845;28;20501;-76
2023/07/09 12:00:37;;;;;;;8.63;7.00;;;29.30;99.90;;;;;;5073944;28;20048;-76
2023/07/09 12:03:04;;;;;;;13.05;7.50;;;29.30;99.90;;;;;;5073129;28;20483;-76
2023/07/09 12:05:30;;;;;;;9.65;7.40;;;29.30;99.90;;;;;;5073760;28;20040;-76
2023/07/09 12:07:58;;;;;;;11.20;7.82;;;29.30;99.90;;;;;;5072741;28;20049;-76
2023/07/09 12:10:27;;;;;;;13.40;8.05;;;29.30;99.90;;;;;;5073694;28;20119;-77
2023/07/09 12:12:57;;;;;;;9.65;7.97;;;29.40;99.90;;;;;;5073121;28;20040;-76
2023/07/09 12:15:31;;;;;;;10.30;7.45;;;29.50;99.90;;;;;;5073827;28;20051;-76
2023/07/09 12:18:02;;;;;;;10.27;7.50;;;29.60;99.90;;;;;;5072303;28;20041;-80
2023/07/09 12:20:34;;;;;;;11.55;8.85;;;29.50;99.90;;;;;;5072793;28;20442;-80
2023/07/09 12:23:00;;;;;;;12.02;8.35;;;29.50;99.90;;;;;;5073856;28;20040;-76
2023/07/09 12:25:30;;;;;;;10.30;8.05;;;29.30;99.90;;;;;;5073538;28;20101;-75
2023/07/09 12:27:58;;;;;;;11.60;8.23;;;29.40;99.90;;;;;;5072099;28;20125;-76
2023/07/09 12:30:23;;;;;;;11.52;8.50;;;29.40;99.90;;;;;;5073572;28;20411;-76
2023/07/09 12:32:52;;;;;;;10.98;8.20;;;29.30;99.90;;;;;;5072204;28;20041;-75
2023/07/09 12:35:19;;;;;;;12.40;8.45;;;29.40;99.90;;;;;;5072497;28;20047;-76
2023/07/09 12:37:46;;;;;;;9.80;7.03;;;29.40;99.90;;;;;;5072236;28;20048;-75
2023/07/09 12:40:21;;;;;;;9.93;7.57;;;29.40;99.90;;;;;;5072424;28;20048;-75